Time;durP1;ratioP1;P1;durP2;ratioP2;P2;SDS_P1;SDS_P2;PMS_P1;PMS_P2;Temp;Humidity;BMP_temperature;BMP_pressure;BME280_temperature;BME280_humidity;BME280_pressure;Samples;Min_cycle;Max_cycle;Signal;HPM_P1;HPM_P2
2022/08/28 00:00:52;;;;;;;67.93;45.35;;;25.90;99.90;;;;;;5033116;28;20111;-66
2022/08/28 00:03:19;;;;;;;68.32;46.40;;;25.90;99.90;;;;;;5032856;28;20022;-66
2022/08/28 00:05:45;;;;;;;74.95;46.88;;;25.90;99.90;;;;;;5033300;28;20029;-66
2022/08/28 00:08:15;;;;;;;73.70;46.20;;;25.90;99.90;;;;;;5033072;28;20083;-65
2022/08/28 00:10:42;;;;;;;72.35;46.30;;;25.90;99.90;;;;;;5032701;28;20026;-65
2022/08/28 00:13:17;;;;;;;68.72;45.60;;;25.80;99.90;;;;;;5032902;28;20021;-66
2022/08/28 00:15:45;;;;;;;67.28;43.63;;;25.90;99.90;;;;;;5033167;28;20026;-65
2022/08/28 00:18:12;;;;;;;71.35;43.67;;;25.90;99.90;;;;;;5032899;28;20021;-66
2022/08/28 00:20:39;;;;;;;65.60;42.53;;;25.90;99.90;;;;;;5033127;28;20105;-65
2022/08/28 00:23:06;;;;;;;78.30;43.30;;;25.90;99.90;;;;;;5032919;28;20025;-65
2022/08/28 00:25:34;;;;;;;59.78;44.00;;;25.90;99.90;;;;;;5032776;28;20108;-66
2022/08/28 00:28:05;;;;;;;61.05;42.78;;;26.00;99.90;;;;;;5032824;28;20511;-66
2022/08/28 00:30:33;;;;;;;61.80;42.90;;;26.00;99.90;;;;;;5033119;28;20053;-66
2022/08/28 00:33:05;;;;;;;73.55;44.83;;;26.00;99.90;;;;;;5032773;28;20385;-67
2022/08/28 00:35:32;;;;;;;59.40;44.35;;;26.00;99.90;;;;;;5033026;28;20021;-67
2022/08/28 00:37:59;;;;;;;62.53;43.72;;;26.10;99.90;;;;;;5032826;28;20053;-67
2022/08/28 00:40:28;;;;;;;64.03;47.15;;;26.10;99.90;;;;;;5032664;28;20097;-67
2022/08/28 00:42:56;;;;;;;64.38;45.85;;;26.20;99.90;;;;;;5032771;28;20059;-66
2022/08/28 00:45:24;;;;;;;73.78;48.33;;;26.30;99.90;;;;;;5032635;28;20088;-69
2022/08/28 00:47:51;;;;;;;58.83;41.47;;;26.40;99.90;;;;;;5032689;28;20389;-66
2022/08/28 00:50:21;;;;;;;50.53;34.78;;;26.60;99.90;;;;;;5032638;28;20033;-68
2022/08/28 00:52:51;;;;;;;38.10;27.80;;;26.70;99.90;;;;;;5036110;28;20112;-68
2022/08/28 00:55:21;;;;;;;33.88;24.83;;;26.70;99.90;;;;;;5036380;28;20053;-68
2022/08/28 00:57:53;;;;;;;38.70;24.70;;;26.70;99.90;;;;;;5036123;28;20053;-68
2022/08/28 01:00:36;;;;;;;38.50;26.63;;;26.80;99.90;;;;;;5036276;28;20025;-68
2022/08/28 01:03:04;;;;;;;36.83;27.33;;;26.90;99.90;;;;;;5036030;28;20036;-68
2022/08/28 01:05:33;;;;;;;40.65;29.30;;;26.90;99.90;;;;;;5036143;28;20056;-69
2022/08/28 01:08:01;;;;;;;37.35;27.25;;;26.90;99.90;;;;;;5036000;28;20083;-68
2022/08/28 01:10:31;;;;;;;42.72;29.65;;;26.90;99.90;;;;;;5035910;28;20029;-68
2022/08/28 01:12:59;;;;;;;33.58;26.00;;;26.90;99.90;;;;;;5035795;28;20540;-69
2022/08/28 01:15:33;;;;;;;34.25;24.15;;;26.80;99.90;;;;;;5035970;28;20018;-68
2022/08/28 01:18:05;;;;;;;37.40;21.70;;;26.90;99.90;;;;;;5035662;28;20486;-68
2022/08/28 01:20:35;;;;;;;20.80;16.70;;;27.00;99.90;;;;;;5035820;28;20032;-68
2022/08/28 01:23:18;;;;;;;23.75;16.55;;;27.00;99.90;;;;;;5035760;28;20033;-68
2022/08/28 01:25:44;;;;;;;27.75;19.58;;;27.10;99.90;;;;;;5035857;28;20052;-67
2022/08/28 01:28:13;;;;;;;29.17;20.88;;;27.20;99.90;;;;;;5035521;28;20051;-68
2022/08/28 01:30:44;;;;;;;31.92;22.83;;;27.20;99.90;;;;;;5035533;28;20037;-68
2022/08/28 01:33:11;;;;;;;35.42;27.02;;;27.30;99.90;;;;;;5035610;28;20029;-68
2022/08/28 01:35:41;;;;;;;36.97;27.95;;;27.30;99.90;;;;;;5035458;28;20059;-68
2022/08/28 01:38:08;;;;;;;29.73;23.20;;;27.30;99.90;;;;;;5035302;28;20025;-67
2022/08/28 01:40:39;;;;;;;28.73;22.77;;;27.40;99.90;;;;;;5035474;28;20483;-68
2022/08/28 01:43:11;;;;;;;31.52;22.73;;;27.50;99.90;;;;;;5035389;28;20040;-69
2022/08/28 01:45:40;;;;;;;28.25;22.33;;;27.50;99.90;;;;;;5035311;28;20029;-68
2022/08/28 01:48:07;;;;;;;27.65;21.52;;;27.50;99.90;;;;;;5035269;28;20061;-68
2022/08/28 01:50:35;;;;;;;27.83;21.90;;;27.60;99.90;;;;;;5035120;28;20033;-68
2022/08/28 01:53:04;;;;;;;36.47;26.98;;;27.60;99.90;;;;;;5035600;28;20022;-68
2022/08/28 01:55:34;;;;;;;34.13;29.08;;;27.70;99.90;;;;;;5035548;28;20426;-68
2022/08/28 01:58:04;;;;;;;34.70;25.92;;;27.70;99.90;;;;;;5027730;28;20032;-68
2022/08/28 02:00:30;;;;;;;37.05;29.45;;;27.70;99.90;;;;;;5022937;28;20022;-68
2022/08/28 02:02:59;;;;;;;39.85;28.98;;;27.70;99.90;;;;;;5024511;28;20101;-68
2022/08/28 02:05:29;;;;;;;57.28;43.67;;;27.80;99.90;;;;;;5028981;28;20479;-69
2022/08/28 02:07:57;;;;;;;52.40;36.15;;;27.90;99.90;;;;;;5025458;28;20037;-68
2022/08/28 02:10:25;;;;;;;54.25;35.30;;;28.00;99.90;;;;;;5026647;28;20072;-69
2022/08/28 02:12:54;;;;;;;60.42;43.63;;;28.10;99.90;;;;;;5022111;28;20038;-64
2022/08/28 02:15:22;;;;;;;90.32;59.17;;;28.20;99.90;;;;;;5023321;28;20416;-64
2022/08/28 02:17:49;;;;;;;90.88;58.15;;;28.30;99.90;;;;;;5032263;28;20026;-66
2022/08/28 02:20:15;;;;;;;112.90;64.35;;;28.30;99.90;;;;;;5031426;28;20388;-65
2022/08/28 02:22:42;;;;;;;106.13;63.83;;;28.20;99.90;;;;;;5032195;28;20018;-66
2022/08/28 02:25:09;;;;;;;116.00;66.07;;;28.20;99.90;;;;;;5030885;28;20033;-65
2022/08/28 02:27:37;;;;;;;121.50;67.53;;;28.30;99.90;;;;;;5029265;28;20021;-66
2022/08/28 02:30:07;;;;;;;143.27;78.13;;;28.30;99.90;;;;;;5029501;28;20033;-64
2022/08/28 02:32:34;;;;;;;135.35;75.25;;;28.30;99.90;;;;;;5024724;28;20053;-68
2022/08/28 02:35:00;;;;;;;154.40;80.72;;;28.30;99.90;;;;;;5023507;28;20282;-67
2022/08/28 02:37:27;;;;;;;154.90;85.45;;;28.30;99.90;;;;;;5022757;28;20018;-68
2022/08/28 02:39:56;;;;;;;591.97;476.88;;;28.30;99.90;;;;;;5022021;28;20037;-68
2022/08/28 02:42:23;;;;;;;380.25;261.10;;;28.40;99.90;;;;;;5022753;28;20056;-65
2022/08/28 02:44:50;;;;;;;238.50;147.95;;;28.40;99.90;;;;;;5024332;28;20036;-65
2022/08/28 02:47:17;;;;;;;237.13;138.55;;;28.40;99.90;;;;;;5023733;28;20045;-64
2022/08/28 02:49:43;;;;;;;247.50;143.38;;;28.50;99.90;;;;;;5023000;28;20033;-64
2022/08/28 02:52:11;;;;;;;198.30;118.15;;;28.50;99.90;;;;;;5021606;28;20041;-65
2022/08/28 02:54:39;;;;;;;176.35;101.53;;;28.60;99.90;;;;;;5023645;28;20017;-64
2022/08/28 02:57:07;;;;;;;190.82;107.63;;;28.60;99.90;;;;;;5023449;28;20131;-64
2022/08/28 02:59:35;;;;;;;166.77;96.18;;;28.70;99.90;;;;;;5021931;28;20106;-66
2022/08/28 03:02:03;;;;;;;146.32;82.88;;;28.70;99.90;;;;;;5026653;28;20080;-65
2022/08/28 03:04:30;;;;;;;139.43;80.50;;;28.70;99.90;;;;;;5025170;28;20026;-65
2022/08/28 03:06:58;;;;;;;480.70;327.88;;;28.70;99.90;;;;;;5024203;28;20108;-65
2022/08/28 03:09:25;;;;;;;210.23;127.00;;;28.70;99.90;;;;;;5025204;28;20029;-63
2022/08/28 03:11:53;;;;;;;134.40;79.07;;;28.70;99.90;;;;;;5031675;28;20088;-64
2022/08/28 03:14:20;;;;;;;141.77;80.50;;;28.70;99.90;;;;;;5032597;28;20033;-63
2022/08/28 03:16:47;;;;;;;140.85;82.82;;;28.80;99.90;;;;;;5014938;28;20053;-64
2022/08/28 03:19:14;;;;;;;121.47;68.65;;;28.80;99.90;;;;;;5012805;28;20029;-64
2022/08/28 03:21:40;;;;;;;115.38;67.40;;;28.90;99.90;;;;;;5014437;28;20075;-77
2022/08/28 03:24:07;;;;;;;125.20;70.05;;;28.90;99.90;;;;;;5013429;28;20471;-74
2022/08/28 03:26:34;;;;;;;130.35;73.95;;;29.00;99.90;;;;;;5013380;28;20033;-73
2022/08/28 03:29:00;;;;;;;116.38;66.60;;;29.10;99.90;;;;;;5013593;28;20018;-75
2022/08/28 03:31:31;;;;;;;113.80;66.78;;;29.10;99.90;;;;;;5013400;28;20536;-72
2022/08/28 03:34:01;;;;;;;124.70;69.68;;;29.00;99.90;;;;;;5013478;28;20112;-73
2022/08/28 03:36:28;;;;;;;124.88;69.10;;;29.10;99.90;;;;;;5013287;28;20021;-73
2022/08/28 03:38:57;;;;;;;131.63;69.47;;;29.10;99.90;;;;;;5013784;28;20022;-74
2022/08/28 03:41:27;;;;;;;667.83;437.75;;;29.10;99.90;;;;;;5014224;28;20022;-72
2022/08/28 03:43:56;;;;;;;114.20;74.20;;;29.30;99.90;;;;;;5014061;28;20030;-73
2022/08/28 03:46:24;;;;;;;109.72;67.65;;;29.40;99.90;;;;;;5013199;28;20026;-75
2022/08/28 03:48:51;;;;;;;435.77;244.57;;;29.50;99.90;;;;;;5013525;28;20033;-71
2022/08/28 03:51:21;;;;;;;153.02;91.28;;;29.70;99.90;;;;;;5013478;28;20054;-71
2022/08/28 03:53:48;;;;;;;99.80;66.15;;;29.70;99.90;;;;;;5020117;28;20445;-70
2022/08/28 03:56:20;;;;;;;74.03;49.17;;;29.70;99.90;;;;;;5027175;28;20029;-71
2022/08/28 03:58:48;;;;;;;64.38;47.72;;;29.60;99.90;;;;;;5033339;28;20056;-70
2022/08/28 04:01:14;;;;;;;55.88;40.20;;;29.60;99.90;;;;;;5033792;28;20390;-68
2022/08/28 04:03:41;;;;;;;77.80;50.25;;;29.60;99.90;;;;;;5033464;28;20014;-68
2022/08/28 04:06:07;;;;;;;51.22;37.00;;;29.60;99.90;;;;;;5033838;28;20021;-68
2022/08/28 04:08:34;;;;;;;205.88;124.85;;;29.60;99.90;;;;;;5031423;28;20017;-69
2022/08/28 04:11:02;;;;;;;102.80;70.40;;;29.70;99.90;;;;;;5023762;28;20045;-68
2022/08/28 04:13:30;;;;;;;343.73;229.23;;;29.80;99.90;;;;;;5016169;28;20146;-68
2022/08/28 04:16:01;;;;;;;124.25;80.82;;;29.90;99.90;;;;;;5031714;28;20033;-68
2022/08/28 04:18:29;;;;;;;135.57;93.68;;;29.90;99.90;;;;;;5032667;28;20471;-68
2022/08/28 04:21:00;;;;;;;57.85;41.65;;;30.00;99.90;;;;;;5032711;28;20075;-69
2022/08/28 04:23:26;;;;;;;43.85;31.48;;;30.10;99.90;;;;;;5032743;28;20033;-69
2022/08/28 04:25:53;;;;;;;29.95;24.50;;;30.20;99.90;;;;;;5035543;28;20057;-67
2022/08/28 04:28:20;;;;;;;42.78;30.55;;;30.30;99.90;;;;;;5037780;28;20083;-67
2022/08/28 04:30:50;;;;;;;35.92;25.63;;;30.30;99.90;;;;;;5035574;28;20087;-66
2022/08/28 04:33:17;;;;;;;121.53;93.22;;;30.30;99.90;;;;;;5033711;28;20389;-68
2022/08/28 04:35:44;;;;;;;96.65;78.50;;;30.30;99.90;;;;;;5025009;28;20053;-67
2022/08/28 04:38:10;;;;;;;109.82;81.82;;;30.20;99.90;;;;;;5026114;28;20017;-67
2022/08/28 04:40:40;;;;;;;37.65;27.80;;;30.20;99.90;;;;;;5029968;28;20044;-68
2022/08/28 04:43:07;;;;;;;39.97;27.95;;;30.10;99.90;;;;;;5027196;28;20387;-66
2022/08/28 04:45:39;;;;;;;35.97;28.25;;;30.10;99.90;;;;;;5029391;28;20025;-67
2022/08/28 04:48:06;;;;;;;35.30;26.67;;;30.10;99.90;;;;;;5031556;28;20032;-65
2022/08/28 04:50:33;;;;;;;35.97;27.50;;;30.00;99.90;;;;;;5037155;28;20021;-67
2022/08/28 04:52:59;;;;;;;34.08;25.83;;;30.00;99.90;;;;;;5030853;28;20084;-64
2022/08/28 04:55:27;;;;;;;92.20;56.53;;;30.00;99.90;;;;;;5030969;28;20063;-67
2022/08/28 04:57:53;;;;;;;77.88;51.13;;;30.00;99.90;;;;;;5036645;28;20075;-66
2022/08/28 05:00:20;;;;;;;100.95;62.45;;;30.00;99.90;;;;;;5034597;28;20025;-66
2022/08/28 05:02:46;;;;;;;108.35;65.00;;;29.90;99.90;;;;;;5031868;28;20490;-65
2022/08/28 05:05:13;;;;;;;100.32;62.88;;;29.80;99.90;;;;;;5035534;28;20371;-65
2022/08/28 05:07:39;;;;;;;102.88;62.70;;;29.80;99.90;;;;;;5035161;28;20076;-66
2022/08/28 05:10:09;;;;;;;108.38;62.97;;;29.80;99.90;;;;;;5036280;28;20036;-64
2022/08/28 05:12:36;;;;;;;95.97;56.60;;;29.80;99.90;;;;;;5035642;28;20049;-65
2022/08/28 05:15:03;;;;;;;130.40;81.30;;;29.80;99.90;;;;;;5032330;28;20444;-66
2022/08/28 05:17:29;;;;;;;102.45;67.13;;;29.80;99.90;;;;;;5023847;28;20018;-65
2022/08/28 05:19:56;;;;;;;87.07;55.00;;;29.90;99.90;;;;;;5013874;28;20494;-65
2022/08/28 05:22:22;;;;;;;104.53;78.32;;;29.90;99.90;;;;;;5014188;28;20033;-67
2022/08/28 05:24:49;;;;;;;48.78;40.47;;;29.90;99.90;;;;;;5016851;28;20457;-65
2022/08/28 05:27:15;;;;;;;52.17;41.95;;;29.90;99.90;;;;;;5033243;28;20127;-64
2022/08/28 05:29:42;;;;;;;165.25;112.68;;;30.00;99.90;;;;;;5033384;28;20164;-66
2022/08/28 05:32:08;;;;;;;50.92;38.90;;;30.10;99.90;;;;;;5033675;28;20410;-65
2022/08/28 05:34:35;;;;;;;55.05;40.35;;;30.20;99.90;;;;;;5034842;28;20548;-66
2022/08/28 05:37:01;;;;;;;59.35;36.53;;;30.30;99.90;;;;;;5034007;28;20147;-67
2022/08/28 05:39:28;;;;;;;69.28;40.13;;;30.40;99.90;;;;;;5035576;28;20371;-65
2022/08/28 05:41:55;;;;;;;54.63;38.05;;;30.50;99.90;;;;;;5034473;28;20367;-65
2022/08/28 05:44:22;;;;;;;55.97;39.97;;;30.50;99.90;;;;;;5027112;28;20025;-66
2022/08/28 05:46:48;;;;;;;54.90;39.65;;;30.50;99.90;;;;;;5016014;28;20030;-65
2022/08/28 05:49:17;;;;;;;55.20;38.88;;;30.40;99.90;;;;;;5015816;28;20067;-65
2022/08/28 05:51:44;;;;;;;59.35;43.63;;;30.40;99.90;;;;;;5033225;28;20053;-68
2022/08/28 05:54:11;;;;;;;53.53;38.80;;;30.30;99.90;;;;;;5035179;28;20026;-67
2022/08/28 05:56:39;;;;;;;59.55;42.63;;;30.10;99.90;;;;;;5035473;28;20261;-65
2022/08/28 05:59:07;;;;;;;62.75;44.25;;;30.00;99.90;;;;;;5034488;28;20025;-70
2022/08/28 06:01:39;;;;;;;59.22;37.90;;;30.00;99.90;;;;;;5035488;28;20025;-67
2022/08/28 06:04:07;;;;;;;51.08;37.17;;;30.00;99.90;;;;;;5035008;28;20434;-65
2022/08/28 06:06:38;;;;;;;49.72;36.22;;;30.00;99.90;;;;;;5035179;28;20036;-66
2022/08/28 06:09:11;;;;;;;46.38;33.72;;;30.10;99.90;;;;;;5035209;28;20018;-67
2022/08/28 06:11:38;;;;;;;47.38;31.40;;;30.10;99.90;;;;;;5034531;28;20045;-67
2022/08/28 06:14:09;;;;;;;55.35;37.53;;;30.10;99.90;;;;;;5017727;28;20038;-66
2022/08/28 06:16:41;;;;;;;48.17;33.80;;;30.10;99.90;;;;;;5034945;28;20029;-66
2022/08/28 06:19:09;;;;;;;46.42;33.58;;;30.10;99.90;;;;;;5034926;28;20028;-65
2022/08/28 06:21:39;;;;;;;46.78;32.80;;;30.20;99.90;;;;;;5034784;28;20037;-65
2022/08/28 06:24:06;;;;;;;47.15;33.45;;;30.20;99.90;;;;;;5033549;28;20029;-67
2022/08/28 06:26:33;;;;;;;46.75;34.58;;;30.20;99.90;;;;;;5030381;28;20020;-67
2022/08/28 06:29:03;;;;;;;46.30;32.20;;;30.20;99.90;;;;;;5034683;28;20026;-66
2022/08/28 06:31:30;;;;;;;48.97;33.13;;;30.20;99.90;;;;;;5034982;28;21502;-65
2022/08/28 06:33:59;;;;;;;43.47;31.27;;;30.20;99.90;;;;;;5035603;28;20017;-66
2022/08/28 06:36:27;;;;;;;57.67;41.65;;;30.20;99.90;;;;;;5034396;28;20433;-67
2022/08/28 06:38:56;;;;;;;46.70;32.17;;;30.20;99.90;;;;;;5034503;28;20029;-67
2022/08/28 06:41:24;;;;;;;51.60;41.53;;;30.20;99.90;;;;;;5034643;28;20427;-66
2022/08/28 06:43:51;;;;;;;50.42;38.58;;;30.10;99.90;;;;;;5034637;28;20030;-66
2022/08/28 06:46:17;;;;;;;43.90;34.35;;;30.20;99.90;;;;;;5034209;28;20026;-67
2022/08/28 06:48:44;;;;;;;38.25;28.23;;;30.20;99.90;;;;;;5033580;28;20528;-67
2022/08/28 06:51:12;;;;;;;38.83;27.70;;;30.20;99.90;;;;;;5034392;28;20025;-66
2022/08/28 06:53:40;;;;;;;38.35;27.30;;;30.20;99.90;;;;;;5034322;28;20423;-67
2022/08/28 06:56:20;;;;;;;32.78;24.73;;;30.20;99.90;;;;;;5034044;28;20044;-65
2022/08/28 06:58:48;;;;;;;37.88;27.02;;;30.30;99.90;;;;;;5034168;28;20020;-66
2022/08/28 07:01:23;;;;;;;49.75;32.90;;;30.30;99.90;;;;;;5034029;28;20407;-67
2022/08/28 07:03:51;;;;;;;52.97;33.95;;;30.30;99.90;;;;;;5033964;28;20029;-66
2022/08/28 07:06:19;;;;;;;44.90;31.35;;;30.30;99.90;;;;;;5033225;28;20038;-65
2022/08/28 07:08:46;;;;;;;41.72;28.45;;;30.40;99.90;;;;;;5033426;28;20041;-66
2022/08/28 07:11:19;;;;;;;47.80;29.17;;;30.50;99.90;;;;;;5033863;28;20041;-64
2022/08/28 07:13:46;;;;;;;48.90;33.45;;;30.50;99.90;;;;;;5033063;28;20135;-67
2022/08/28 07:16:14;;;;;;;46.65;28.10;;;30.50;99.90;;;;;;5018301;28;20074;-66
2022/08/28 07:18:41;;;;;;;36.67;24.98;;;30.60;99.90;;;;;;5020262;28;20029;-67
2022/08/28 07:21:08;;;;;;;45.30;32.25;;;30.60;99.90;;;;;;5020254;28;20378;-66
2022/08/28 07:23:36;;;;;;;45.00;31.75;;;30.70;99.90;;;;;;5020481;28;20033;-65
2022/08/28 07:26:08;;;;;;;54.88;37.58;;;30.90;99.90;;;;;;5027868;28;20116;-66
2022/08/28 07:28:35;;;;;;;50.40;33.83;;;31.00;99.90;;;;;;5030141;28;20076;-67
2022/08/28 07:31:09;;;;;;;46.80;31.23;;;31.00;99.90;;;;;;5022045;28;20033;-67
2022/08/28 07:33:38;;;;;;;31.17;23.25;;;31.00;99.90;;;;;;5030497;28;20512;-67
2022/08/28 07:36:10;;;;;;;104.97;71.35;;;31.00;99.90;;;;;;5033651;28;20033;-66
2022/08/28 07:38:37;;;;;;;53.38;34.65;;;31.00;99.90;;;;;;5033591;28;20022;-65
2022/08/28 07:41:15;;;;;;;46.92;31.17;;;31.00;99.90;;;;;;5027234;28;20096;-66
2022/08/28 07:46:29;;;;;;;70.10;48.85;;;31.00;99.90;;;;;;5029744;28;20028;-66
2022/08/28 07:48:58;;;;;;;135.15;101.40;;;31.10;99.90;;;;;;5026601;28;20030;-66
2022/08/28 07:51:25;;;;;;;62.45;40.28;;;31.00;99.90;;;;;;5014155;28;20026;-66
2022/08/28 07:53:53;;;;;;;60.78;37.15;;;31.00;99.90;;;;;;5013892;28;20030;-67
2022/08/28 07:56:20;;;;;;;55.88;36.03;;;31.10;99.90;;;;;;5013993;28;20041;-67
2022/08/28 07:58:47;;;;;;;54.30;35.13;;;31.00;99.90;;;;;;5022477;28;20033;-66
2022/08/28 08:01:16;;;;;;;50.80;33.42;;;31.00;99.90;;;;;;5029402;28;20033;-66
2022/08/28 08:03:43;;;;;;;46.20;32.38;;;31.00;99.90;;;;;;5021096;28;20084;-66
2022/08/28 08:06:12;;;;;;;41.03;29.67;;;31.00;99.90;;;;;;5027792;28;20029;-69
2022/08/28 08:08:40;;;;;;;32.75;21.10;;;31.00;99.90;;;;;;5028788;28;20455;-66
2022/08/28 08:11:10;;;;;;;44.97;32.78;;;31.00;99.90;;;;;;5028609;28;20046;-67
2022/08/28 08:13:38;;;;;;;26.17;19.70;;;31.00;99.90;;;;;;5027875;28;20075;-66
2022/08/28 08:16:07;;;;;;;54.67;35.67;;;31.00;99.90;;;;;;5027208;28;20026;-66
2022/08/28 08:18:34;;;;;;;72.70;47.35;;;31.00;99.90;;;;;;5029442;28;20121;-66
2022/08/28 08:21:04;;;;;;;28.08;19.92;;;31.00;99.90;;;;;;5030514;28;20400;-66
2022/08/28 08:23:34;;;;;;;58.25;48.10;;;31.00;99.90;;;;;;5031064;28;20497;-67
2022/08/28 08:26:04;;;;;;;20.33;13.65;;;31.10;99.90;;;;;;5037333;28;20045;-67
2022/08/28 08:28:33;;;;;;;16.25;9.23;;;31.00;99.90;;;;;;5036130;28;20032;-66
2022/08/28 08:31:04;;;;;;;27.42;17.23;;;31.00;99.90;;;;;;5030615;28;20057;-66
2022/08/28 08:33:31;;;;;;;21.38;12.90;;;30.90;99.90;;;;;;5031822;28;20026;-66
2022/08/28 08:35:58;;;;;;;11.82;7.00;;;30.90;99.90;;;;;;5017180;28;20483;-66
2022/08/28 08:38:24;;;;;;;11.82;5.65;;;30.90;99.90;;;;;;5020592;28;20032;-67
2022/08/28 08:40:51;;;;;;;11.63;5.55;;;30.90;99.90;;;;;;5027927;28;20057;-67
2022/08/28 08:43:20;;;;;;;12.88;5.43;;;30.90;99.90;;;;;;5035162;28;20018;-65
2022/08/28 08:45:48;;;;;;;16.30;6.13;;;30.80;99.90;;;;;;5027786;28;20538;-66
2022/08/28 08:48:35;;;;;;;12.02;5.88;;;30.80;99.90;;;;;;5029498;28;20544;-65
2022/08/28 08:51:13;;;;;;;10.68;5.63;;;30.80;99.90;;;;;;5031187;28;20045;-67
2022/08/28 08:53:52;;;;;;;16.60;9.63;;;30.80;99.90;;;;;;5028295;28;20041;-66
2022/08/28 08:56:20;;;;;;;102.45;71.47;;;30.70;99.90;;;;;;5025388;28;20018;-67
2022/08/28 08:58:53;;;;;;;38.85;26.08;;;30.70;99.90;;;;;;5028571;28;20030;-67
2022/08/28 09:01:46;;;;;;;65.05;48.85;;;30.80;99.90;;;;;;5032148;28;20018;-68
2022/08/28 09:04:14;;;;;;;20.55;10.77;;;30.80;99.90;;;;;;5034223;28;20076;-68
2022/08/28 09:06:44;;;;;;;33.83;23.00;;;30.90;99.90;;;;;;5026701;28;20418;-71
2022/08/28 09:09:17;;;;;;;76.20;59.53;;;30.90;99.90;;;;;;5026292;28;20052;-72
2022/08/28 09:11:54;;;;;;;14.43;6.65;;;30.90;99.90;;;;;;5025008;28;20515;-73
2022/08/28 09:14:35;;;;;;;11.25;5.78;;;30.80;99.90;;;;;;5028356;28;20049;-70
2022/08/28 09:17:03;;;;;;;7.38;4.72;;;30.80;99.90;;;;;;5027064;28;20022;-71
2022/08/28 09:19:30;;;;;;;10.57;5.53;;;30.80;99.90;;;;;;5030293;28;20518;-71
2022/08/28 09:21:56;;;;;;;12.07;5.95;;;30.80;99.90;;;;;;5024878;28;20025;-71
2022/08/28 09:24:27;;;;;;;11.27;5.50;;;30.80;99.90;;;;;;5024346;28;20128;-71
2022/08/28 09:27:04;;;;;;;13.68;6.22;;;30.80;99.90;;;;;;5035519;28;20490;-73
2022/08/28 09:29:36;;;;;;;9.57;5.75;;;30.80;99.90;;;;;;5028719;28;20105;-70
2022/08/28 09:32:37;;;;;;;10.98;6.38;;;30.80;99.90;;;;;;5027852;28;20048;-70
2022/08/28 09:35:15;;;;;;;10.88;5.63;;;30.70;99.90;;;;;;5025829;28;20033;-68
2022/08/28 09:37:43;;;;;;;13.88;6.95;;;30.70;99.90;;;;;;5115696;22;20405;-69
2022/08/28 09:40:23;;;;;;;12.55;7.63;;;30.80;99.90;;;;;;5102206;28;20027;-74
2022/08/28 09:46:01;;;;;;;159.27;121.72;;;30.70;99.90;;;;;;5100161;28;20032;-72
2022/08/28 09:48:36;;;;;;;194.48;164.77;;;30.70;99.90;;;;;;5095768;28;20528;-72
2022/08/28 09:51:05;;;;;;;70.47;56.17;;;30.70;99.90;;;;;;5095468;28;20051;-73
2022/08/28 09:53:37;;;;;;;55.20;39.17;;;30.70;99.90;;;;;;5094747;28;20032;-72
2022/08/28 09:56:12;;;;;;;133.63;110.70;;;30.70;99.90;;;;;;5093870;28;20099;-72
2022/08/28 09:58:44;;;;;;;78.13;66.18;;;30.70;99.90;;;;;;5093879;28;20043;-72
2022/08/28 10:01:27;;;;;;;41.33;28.83;;;30.60;99.90;;;;;;5087342;28;20032;-71
2022/08/28 10:04:16;;;;;;;55.17;36.00;;;30.60;99.90;;;;;;5083567;28;20111;-71
2022/08/28 10:07:07;;;;;;;31.23;19.40;;;30.60;99.90;;;;;;5010390;28;20505;-71
2022/08/28 10:10:00;;;;;;;31.75;18.30;;;30.50;99.90;;;;;;5010337;28;20560;-71
2022/08/28 10:13:01;;;;;;;16.42;12.13;;;30.60;99.90;;;;;;5010332;28;20081;-71
2022/08/28 10:15:39;;;;;;;24.63;14.07;;;30.50;99.90;;;;;;5010393;28;20025;-71
2022/08/28 10:18:25;;;;;;;24.10;13.60;;;30.40;99.90;;;;;;5010517;28;20057;-67
2022/08/28 10:20:56;;;;;;;25.20;13.65;;;30.40;99.90;;;;;;5005221;28;20037;-66
2022/08/28 10:23:46;;;;;;;23.92;12.93;;;30.40;99.90;;;;;;5005792;28;20041;-66
2022/08/28 10:26:14;;;;;;;21.67;12.05;;;30.30;99.90;;;;;;4992962;28;20022;-66
2022/08/28 10:28:45;;;;;;;21.42;11.15;;;30.30;99.90;;;;;;4992636;28;20042;-66
2022/08/28 10:31:44;;;;;;;19.15;10.73;;;30.20;99.90;;;;;;4992942;28;20058;-66
2022/08/28 10:34:29;;;;;;;20.13;11.15;;;30.10;99.90;;;;;;4992961;28;20034;-67
2022/08/28 10:37:05;;;;;;;20.73;11.02;;;30.10;99.90;;;;;;4992714;28;20503;-66
2022/08/28 10:39:49;;;;;;;25.88;11.93;;;30.00;99.90;;;;;;4992831;28;20494;-66
2022/08/28 10:42:27;;;;;;;24.23;12.20;;;30.10;99.90;;;;;;4999107;28;20036;-64
2022/08/28 10:45:04;;;;;;;26.83;13.25;;;30.00;99.90;;;;;;5079282;28;20033;-65
2022/08/28 10:47:35;;;;;;;26.08;14.30;;;30.00;99.90;;;;;;5073717;28;20039;-66
2022/08/28 10:50:13;;;;;;;92.55;66.10;;;29.90;99.90;;;;;;5073845;28;20111;-65
2022/08/28 10:52:47;;;;;;;79.75;51.35;;;29.90;99.90;;;;;;5073709;28;20504;-65
2022/08/28 10:55:20;;;;;;;80.22;48.05;;;29.80;99.90;;;;;;5073897;28;20021;-65
2022/08/28 10:57:56;;;;;;;62.65;42.38;;;29.70;99.90;;;;;;5073686;28;20028;-65
2022/08/28 11:00:26;;;;;;;26.73;14.88;;;29.70;99.90;;;;;;5073715;28;20428;-66
2022/08/28 11:03:15;;;;;;;56.08;34.17;;;29.60;99.90;;;;;;5073709;28;20526;-67
2022/08/28 11:05:46;;;;;;;50.38;33.42;;;29.50;99.90;;;;;;5096838;28;20480;-66
2022/08/28 11:08:38;;;;;;;70.47;41.35;;;29.50;99.90;;;;;;5101423;28;20035;-68
2022/08/28 11:11:12;;;;;;;41.35;22.33;;;29.50;99.90;;;;;;5101676;28;20384;-67
2022/08/28 11:13:40;;;;;;;25.08;15.10;;;29.40;99.90;;;;;;5102876;28;20150;-68
2022/08/28 11:16:21;;;;;;;20.90;12.38;;;29.40;99.90;;;;;;5091966;28;20028;-68
2022/08/28 11:19:13;;;;;;;17.95;10.63;;;29.40;99.90;;;;;;5091258;28;20016;-69
2022/08/28 11:22:11;;;;;;;29.60;14.35;;;29.30;99.90;;;;;;5091530;28;20402;-65
2022/08/28 11:24:38;;;;;;;21.13;12.38;;;29.40;99.90;;;;;;4989376;28;20031;-65
2022/08/28 11:27:21;;;;;;;46.33;28.27;;;29.30;99.90;;;;;;4991195;28;20048;-66
2022/08/28 11:29:56;;;;;;;;;;;29.40;99.90;;;;;;4993157;28;20512;-66
2022/08/28 11:32:32;;;;;;;22.15;12.88;;;29.40;99.90;;;;;;4992174;28;19914;-64
2022/08/28 11:35:19;;;;;;;111.55;68.05;;;29.30;99.90;;;;;;4983207;28;20031;-62
2022/08/28 11:37:50;;;;;;;31.70;16.88;;;29.30;99.90;;;;;;4989393;28;20470;-62
2022/08/28 11:40:20;;;;;;;95.50;77.60;;;29.20;99.90;;;;;;4990036;28;20045;-62
2022/08/28 11:42:49;;;;;;;56.40;34.15;;;29.30;99.90;;;;;;4989547;28;21444;-63
2022/08/28 11:45:44;;;;;;;141.93;66.53;;;29.30;99.90;;;;;;4988699;28;20030;-63
2022/08/28 11:48:38;;;;;;;65.07;40.97;;;29.20;99.90;;;;;;4989219;28;20038;-63
2022/08/28 11:51:27;;;;;;;21.70;14.10;;;29.10;99.90;;;;;;4987999;28;20506;-65
2022/08/28 11:54:15;;;;;;;23.65;13.85;;;29.10;99.90;;;;;;4933896;29;20036;-66
2022/08/28 11:56:44;;;;;;;30.25;14.93;;;29.00;99.90;;;;;;4933941;29;20048;-66
2022/08/28 11:59:17;;;;;;;20.98;13.95;;;28.90;99.90;;;;;;4939189;29;20039;-65
2022/08/28 12:01:44;;;;;;;27.10;15.50;;;28.80;99.90;;;;;;4938282;28;20526;-64
2022/08/28 12:04:17;;;;;;;35.67;24.55;;;28.80;99.90;;;;;;4940034;29;21076;-64
2022/08/28 12:06:46;;;;;;;29.02;18.15;;;28.80;99.90;;;;;;4945611;29;20090;-66
2022/08/28 12:09:36;;;;;;;36.33;26.15;;;28.90;99.90;;;;;;4988340;28;20382;-66
2022/08/28 12:12:08;;;;;;;45.15;36.63;;;28.80;99.90;;;;;;5008480;28;20059;-65
2022/08/28 12:14:37;;;;;;;39.03;29.02;;;28.90;99.90;;;;;;5009442;28;20018;-64
2022/08/28 12:17:08;;;;;;;16.70;10.70;;;28.90;99.90;;;;;;5009273;28;20029;-66
2022/08/28 12:19:54;;;;;;;19.95;11.85;;;28.80;99.90;;;;;;5009542;28;20030;-66
2022/08/28 12:22:25;;;;;;;16.08;9.52;;;28.70;99.90;;;;;;5009256;28;20485;-64
2022/08/28 12:25:05;;;;;;;14.18;7.75;;;28.60;99.90;;;;;;5005679;28;20029;-65
2022/08/28 12:27:36;;;;;;;14.43;8.20;;;28.70;99.90;;;;;;5009240;28;20579;-65
2022/08/28 12:30:03;;;;;;;17.98;8.50;;;28.70;99.90;;;;;;5009423;28;20030;-65
2022/08/28 12:32:32;;;;;;;20.25;10.02;;;28.70;99.90;;;;;;5009363;28;20030;-65
2022/08/28 12:34:59;;;;;;;16.85;9.13;;;28.70;99.90;;;;;;5009584;28;20471;-65
2022/08/28 12:37:26;;;;;;;17.70;8.93;;;28.70;99.90;;;;;;5009164;28;20064;-65
2022/08/28 12:39:56;;;;;;;25.50;11.80;;;28.70;99.90;;;;;;5006631;28;20386;-65
2022/08/28 12:42:29;;;;;;;22.15;11.07;;;28.70;99.90;;;;;;4999932;28;20038;-65
2022/08/28 12:45:02;;;;;;;15.60;8.75;;;28.70;99.90;;;;;;4988427;28;20048;-65
2022/08/28 12:47:29;;;;;;;19.23;10.00;;;28.70;99.90;;;;;;4991615;28;20058;-65
2022/08/28 12:49:56;;;;;;;28.95;13.68;;;28.70;99.90;;;;;;5027168;28;20040;-65